Terminal Aerodrome Forecast
Issued by NWS

Home | Current Version | Previous Version | Text Only | Print | Product List | Glossary On
Versions: 1 2 3 4 5 6 7 8 9 10 11 12 13 14
000
FTPA31 PHFO 190531
TAFHOG
TAF
PHOG 190531Z 1906/2006 35008KT P6SM FEW030 SCT050
     FM190800 33008KT P6SM VCSH SCT025 BKN045
     FM192000 35012G20KT P6SM FEW025 SCT050
     FM200500 35008KT P6SM FEW025 SCT045
      AMD LTD TO VIS AND WIND 1909/1916=

USA.gov is the U.S. government's official web portal to all federal, state and local government web resources and services.